createdAt,value
2023-04-22T00:02:25.379Z,3.47
2023-04-22T00:04:53.427Z,4.35
2023-04-22T00:07:20.683Z,5.47
2023-04-22T00:09:47.535Z,4.40
2023-04-22T00:12:14.396Z,5.85
2023-04-22T00:14:41.278Z,4.68
2023-04-22T00:17:08.175Z,3.90
2023-04-22T00:19:35.423Z,4.15
2023-04-22T00:22:02.443Z,3.97
2023-04-22T00:24:29.888Z,6.85
2023-04-22T00:26:56.753Z,5.68
2023-04-22T00:29:23.584Z,4.35
2023-04-22T00:31:50.608Z,6.25
2023-04-22T00:34:20.729Z,5.78
2023-04-22T00:36:48.497Z,5.53
2023-04-22T00:39:15.652Z,5.05
2023-04-22T00:41:42.906Z,4.18
2023-04-22T00:44:11.298Z,4.35
2023-04-22T00:46:40.991Z,6.60
2023-04-22T00:49:08.797Z,4.47
2023-04-22T00:51:35.770Z,4.40
2023-04-22T00:54:03.568Z,6.72
2023-04-22T00:56:31.930Z,6.80
2023-04-22T00:58:59.911Z,4.70
2023-04-22T01:01:26.981Z,4.57
2023-04-22T01:03:54.763Z,6.97
2023-04-22T01:06:26.662Z,6.05
2023-04-22T01:08:54.469Z,6.13
2023-04-22T01:11:21.810Z,7.65
2023-04-22T01:13:48.659Z,5.47
2023-04-22T01:16:15.746Z,7.13
2023-04-22T01:18:44.071Z,7.22
2023-04-22T01:21:12.060Z,6.43
2023-04-22T01:23:39.689Z,6.28
2023-04-22T01:26:06.904Z,6.97
2023-04-22T01:28:34.186Z,6.32
2023-04-22T01:31:01.046Z,6.05
2023-04-22T01:33:31.002Z,5.30
2023-04-22T01:35:57.851Z,5.80
2023-04-22T01:38:26.062Z,7.40
2023-04-22T01:40:53.215Z,7.68
2023-04-22T01:43:20.145Z,5.97
2023-04-22T01:45:46.991Z,6.18
2023-04-22T01:48:13.969Z,6.82
2023-04-22T01:50:40.832Z,6.95
2023-04-22T01:53:08.896Z,7.55
2023-04-22T01:55:36.299Z,7.93
2023-04-22T01:58:04.158Z,7.32
2023-04-22T02:00:31.614Z,6.60
2023-04-22T02:02:58.588Z,7.25
2023-04-22T02:05:26.771Z,7.88
2023-04-22T02:07:53.974Z,7.30
2023-04-22T02:10:21.224Z,7.35
2023-04-22T02:12:48.112Z,6.18
2023-04-22T02:15:14.965Z,7.00
2023-04-22T02:17:43.664Z,6.22
2023-04-22T02:20:14.263Z,9.48
2023-04-22T02:22:43.659Z,9.00
2023-04-22T02:25:12.333Z,6.25
2023-04-22T02:27:39.591Z,7.38
2023-04-22T02:30:07.487Z,7.05
2023-04-22T02:32:36.504Z,7.75
2023-04-22T02:35:03.579Z,9.57
2023-04-22T02:37:30.398Z,7.60
2023-04-22T02:39:57.290Z,9.52
2023-04-22T02:42:24.427Z,8.90
2023-04-22T02:44:51.210Z,10.98
2023-04-22T02:47:18.069Z,7.32
2023-04-22T02:49:44.918Z,9.15
2023-04-22T02:52:11.681Z,7.28
2023-04-22T02:54:38.539Z,5.53
2023-04-22T02:57:05.473Z,6.25
2023-04-22T02:59:32.403Z,6.80
2023-04-22T03:02:00.210Z,6.38
2023-04-22T03:04:27.154Z,5.85
2023-04-22T03:06:54.019Z,7.88
2023-04-22T03:13:23.141Z,7.18
2023-04-22T03:15:50.156Z,7.50
2023-04-22T03:18:16.952Z,6.30
2023-04-22T03:20:43.845Z,7.18
2023-04-22T03:23:10.660Z,6.28
2023-04-22T03:25:37.480Z,6.82
2023-04-22T03:28:04.535Z,6.85
2023-04-22T03:30:31.417Z,6.57
2023-04-22T03:32:58.721Z,9.00
2023-04-22T03:35:25.568Z,6.88
2023-04-22T03:37:52.453Z,7.22
2023-04-22T03:40:19.418Z,7.90
2023-04-22T03:42:46.258Z,9.77
2023-04-22T03:45:13.067Z,7.07
2023-04-22T03:47:39.912Z,6.03
2023-04-22T03:50:07.218Z,7.13
2023-04-22T03:52:34.040Z,10.07
2023-04-22T03:55:00.845Z,6.57
2023-04-22T03:57:27.773Z,8.93
2023-04-22T03:59:54.544Z,6.90
2023-04-22T04:02:22.025Z,6.78
2023-04-22T04:04:49.082Z,9.43
2023-04-22T04:07:17.421Z,6.68
2023-04-22T04:09:44.257Z,6.03
2023-04-22T04:12:11.020Z,6.68
2023-04-22T04:14:37.805Z,6.38
2023-04-22T04:17:04.603Z,6.07
2023-04-22T04:19:31.401Z,6.53
2023-04-22T04:21:58.262Z,5.70
2023-04-22T04:24:25.096Z,6.85
2023-04-22T04:26:52.136Z,5.97
2023-04-22T04:29:21.434Z,4.57
2023-04-22T04:31:48.390Z,6.38
2023-04-22T04:34:15.379Z,5.80
2023-04-22T04:36:42.302Z,5.15
2023-04-22T04:39:09.659Z,5.50
2023-04-22T04:41:36.531Z,7.03
2023-04-22T04:44:03.833Z,7.30
2023-04-22T04:46:30.718Z,6.03
2023-04-22T04:48:57.665Z,4.78
2023-04-22T04:51:24.530Z,5.78
2023-04-22T04:53:52.758Z,4.70
2023-04-22T04:56:19.564Z,7.57
2023-04-22T04:58:46.368Z,6.25
2023-04-22T05:01:14.266Z,5.68
2023-04-22T05:03:41.296Z,5.20
2023-04-22T05:06:08.466Z,4.03
2023-04-22T05:08:36.009Z,8.10
2023-04-22T05:11:02.873Z,4.78
2023-04-22T05:13:31.145Z,5.93
2023-04-22T05:16:00.119Z,6.57
2023-04-22T05:18:27.151Z,4.63
2023-04-22T05:20:54.178Z,4.20
2023-04-22T05:23:21.286Z,5.63
2023-04-22T05:25:48.157Z,4.75
2023-04-22T05:28:14.966Z,4.80
2023-04-22T05:30:41.739Z,6.28
2023-04-22T05:33:10.453Z,5.35
2023-04-22T05:35:37.309Z,6.25
2023-04-22T05:38:04.182Z,4.32
2023-04-22T05:40:31.052Z,4.00
2023-04-22T05:42:57.957Z,4.85
2023-04-22T05:45:24.786Z,5.72
2023-04-22T05:47:51.670Z,3.75
2023-04-22T05:50:18.629Z,3.78
2023-04-22T05:52:45.748Z,5.20
2023-04-22T05:55:12.654Z,4.63
2023-04-22T05:57:39.701Z,4.88
2023-04-22T06:00:08.331Z,3.65
2023-04-22T06:02:36.224Z,4.95
2023-04-22T06:05:03.610Z,3.75
2023-04-22T06:07:30.608Z,4.43
2023-04-22T06:10:04.500Z,5.03
2023-04-22T06:12:33.751Z,5.82
2023-04-22T06:15:00.875Z,4.07
2023-04-22T06:17:27.945Z,3.80
2023-04-22T06:19:54.991Z,4.53
2023-04-22T06:22:23.381Z,3.67
2023-04-22T06:24:50.196Z,5.75
2023-04-22T06:27:17.032Z,5.50
2023-04-22T06:29:44.368Z,6.93
2023-04-22T06:32:12.506Z,3.63
2023-04-22T06:34:39.336Z,4.93
2023-04-22T06:37:06.622Z,3.95
2023-04-22T06:39:35.068Z,3.80
2023-04-22T06:42:02.369Z,3.47
2023-04-22T06:44:29.617Z,5.35
2023-04-22T06:46:58.268Z,3.22
2023-04-22T06:49:25.416Z,4.68
2023-04-22T06:51:52.392Z,4.28
2023-04-22T06:54:19.246Z,3.22
2023-04-22T06:56:46.213Z,3.40
2023-04-22T06:59:13.029Z,3.97
2023-04-22T07:01:39.866Z,2.90
2023-04-22T07:04:07.035Z,3.58
2023-04-22T07:06:34.915Z,3.13
2023-04-22T07:09:01.748Z,3.28
2023-04-22T07:11:28.581Z,4.07
2023-04-22T07:13:56.722Z,5.03
2023-04-22T07:16:28.757Z,2.80
2023-04-22T07:18:58.496Z,2.65
2023-04-22T07:21:25.944Z,2.70
2023-04-22T07:23:53.410Z,3.40
2023-04-22T07:26:21.279Z,3.13
2023-04-22T07:28:48.269Z,2.40
2023-04-22T07:31:16.632Z,6.13
2023-04-22T07:33:44.012Z,5.25
2023-04-22T07:36:10.882Z,3.03
2023-04-22T07:38:38.040Z,5.20
2023-04-22T08:00:54.181Z,2.60
2023-04-22T08:03:21.410Z,5.72
2023-04-22T08:05:49.757Z,4.15
2023-04-22T08:08:16.915Z,2.90
2023-04-22T08:10:43.798Z,2.35
2023-04-22T08:13:10.961Z,4.63
2023-04-22T08:15:38.864Z,3.10
2023-04-22T08:18:05.897Z,5.43
2023-04-22T08:20:32.876Z,2.85
2023-04-22T08:23:00.734Z,3.38
2023-04-22T08:25:28.354Z,4.35
2023-04-22T08:27:55.273Z,3.40
2023-04-22T08:30:22.206Z,2.70
2023-04-22T08:32:53.538Z,5.13
2023-04-22T08:35:21.286Z,2.42
2023-04-22T08:37:48.159Z,4.10
2023-04-22T08:40:14.991Z,4.70
2023-04-22T08:42:43.906Z,3.58
2023-04-22T08:45:11.131Z,2.60
2023-04-22T08:47:38.880Z,4.95
2023-04-22T08:50:07.560Z,3.75
2023-04-22T08:52:34.506Z,3.55
2023-04-22T08:55:02.151Z,2.35
2023-04-22T08:57:30.123Z,4.65
2023-04-22T08:59:57.171Z,2.83
2023-04-22T09:02:24.903Z,2.13
2023-04-22T09:04:56.545Z,2.08
2023-04-22T09:07:27.679Z,5.72
2023-04-22T09:09:59.859Z,3.47
2023-04-22T09:12:27.255Z,2.95
2023-04-22T09:14:57.652Z,2.20
2023-04-22T09:17:35.422Z,4.00
2023-04-22T09:20:04.831Z,3.53
2023-04-22T09:22:44.679Z,4.82
2023-04-22T09:25:22.802Z,3.13
2023-04-22T09:27:56.465Z,2.63
2023-04-22T09:30:28.670Z,2.97
2023-04-22T09:32:57.504Z,5.10
2023-04-22T09:35:36.581Z,4.10
2023-04-22T09:38:06.892Z,3.88
2023-04-22T09:40:34.868Z,5.10
2023-04-22T09:43:08.742Z,2.22
2023-04-22T09:45:41.271Z,9.27
2023-04-22T09:48:17.493Z,5.25
2023-04-22T09:50:49.730Z,4.45
2023-04-22T09:53:19.365Z,3.10
2023-04-22T09:55:52.172Z,4.20
2023-04-22T09:58:21.012Z,3.30
2023-04-22T10:00:53.549Z,17.67
2023-04-22T10:03:20.696Z,4.53
2023-04-22T10:05:47.889Z,1.73
2023-04-22T10:08:17.823Z,2.20
2023-04-22T10:10:45.496Z,4.15
2023-04-22T10:13:12.889Z,3.15
2023-04-22T10:15:54.359Z,4.82
2023-04-22T10:18:33.063Z,4.90
2023-04-22T10:21:01.431Z,4.25
2023-04-22T10:23:33.118Z,3.05
2023-04-22T10:26:00.693Z,2.75
2023-04-22T10:28:29.666Z,2.75
2023-04-22T10:30:56.568Z,2.58
2023-04-22T10:33:28.876Z,4.18
2023-04-22T10:36:14.490Z,3.83
2023-04-22T10:39:04.075Z,4.60
2023-04-22T10:41:35.644Z,5.22
2023-04-22T10:44:06.943Z,4.68
2023-04-22T10:46:45.539Z,4.57
2023-04-22T10:49:13.537Z,3.10
2023-04-22T10:51:46.274Z,3.45
2023-04-22T10:54:32.609Z,2.15
2023-04-22T10:57:07.718Z,3.35
2023-04-22T10:59:58.278Z,3.25
2023-04-22T11:02:25.223Z,3.13
2023-04-22T11:05:12.437Z,5.22
2023-04-22T11:07:40.882Z,6.43
2023-04-22T11:10:10.180Z,2.88
2023-04-22T11:12:39.763Z,4.38
2023-04-22T11:15:15.250Z,5.57
2023-04-22T11:17:48.171Z,4.93
2023-04-22T11:20:17.593Z,5.00
2023-04-22T11:22:47.360Z,4.88
2023-04-22T11:25:16.502Z,5.32
2023-04-22T11:27:44.322Z,6.10
2023-04-22T11:30:22.777Z,4.38
2023-04-22T11:33:02.450Z,6.07
2023-04-22T11:35:36.137Z,4.45
2023-04-22T11:38:08.771Z,7.43
2023-04-22T11:40:40.529Z,6.10
2023-04-22T11:43:14.002Z,5.47
2023-04-22T11:45:41.148Z,3.30
2023-04-22T11:48:11.267Z,6.68
2023-04-22T11:50:39.742Z,3.35
2023-04-22T11:53:21.098Z,6.03
2023-04-22T11:55:53.908Z,6.13
2023-04-22T11:58:29.842Z,2.72
2023-04-22T12:00:59.404Z,6.45
2023-04-22T12:03:28.917Z,3.72
2023-04-22T12:06:02.929Z,5.18
2023-04-22T12:08:35.877Z,7.38
2023-04-22T12:11:08.205Z,3.63
2023-04-22T12:13:42.978Z,5.85
2023-04-22T12:16:19.693Z,3.80
2023-04-22T12:18:51.858Z,2.83
2023-04-22T12:21:24.970Z,4.60
2023-04-22T12:23:54.409Z,4.28
2023-04-22T12:26:26.396Z,3.05
2023-04-22T12:28:55.513Z,4.70
2023-04-22T12:31:25.175Z,4.43
2023-04-22T12:33:52.587Z,4.00
2023-04-22T12:36:23.800Z,5.05
2023-04-22T12:38:51.737Z,4.05
2023-04-22T12:41:19.068Z,5.28
2023-04-22T12:43:46.140Z,3.72
2023-04-22T12:46:14.215Z,7.90
2023-04-22T12:48:42.967Z,5.35
2023-04-22T12:51:09.912Z,3.90
2023-04-22T12:53:36.944Z,6.05
2023-04-22T12:56:04.202Z,4.78
2023-04-22T12:58:32.065Z,3.00
2023-04-22T13:01:00.034Z,5.05
2023-04-22T13:03:29.408Z,3.65
2023-04-22T13:05:57.009Z,3.03
2023-04-22T13:08:24.079Z,2.97
2023-04-22T13:10:56.515Z,3.20
2023-04-22T13:13:23.686Z,4.88
2023-04-22T13:15:54.386Z,3.20
2023-04-22T13:18:23.397Z,4.65
2023-04-22T13:20:55.212Z,4.05
2023-04-22T13:23:23.428Z,4.50
2023-04-22T13:25:50.717Z,2.15
2023-04-22T13:28:18.036Z,3.88
2023-04-22T13:30:49.204Z,5.25
2023-04-22T13:33:18.296Z,4.60
2023-04-22T13:35:45.587Z,2.67
2023-04-22T13:38:15.205Z,4.05
2023-04-22T13:40:48.528Z,4.10
2023-04-22T13:43:18.255Z,2.88
2023-04-22T13:45:45.785Z,2.95
2023-04-22T13:48:12.688Z,3.97
2023-04-22T13:50:42.839Z,2.38
2023-04-22T13:53:13.057Z,3.40
2023-04-22T13:55:40.219Z,2.97
2023-04-22T13:58:07.809Z,3.85
2023-04-22T14:00:36.469Z,2.03
2023-04-22T14:03:03.603Z,8.15
2023-04-22T14:05:31.861Z,1.70
2023-04-22T14:07:59.929Z,1.70
2023-04-22T14:10:28.664Z,1.45
2023-04-22T14:12:56.394Z,3.92
2023-04-22T14:15:24.131Z,1.50
2023-04-22T14:17:51.218Z,2.20
2023-04-22T14:20:18.148Z,3.28
2023-04-22T14:22:44.963Z,2.60
2023-04-22T14:25:11.775Z,2.38
2023-04-22T14:27:39.015Z,1.75
2023-04-22T14:30:08.497Z,2.85
2023-04-22T14:32:36.473Z,2.13
2023-04-22T14:35:06.599Z,1.48
2023-04-22T14:37:36.106Z,1.58
2023-04-22T14:40:07.502Z,2.83
2023-04-22T14:42:35.007Z,2.30
2023-04-22T14:45:02.344Z,3.85
2023-04-22T14:47:34.536Z,4.10
2023-04-22T14:50:04.939Z,5.50
2023-04-22T14:52:37.930Z,2.03
2023-04-22T14:55:19.468Z,2.57
2023-04-22T15:00:18.575Z,2.65
2023-04-22T15:02:46.863Z,2.50
2023-04-22T15:05:14.476Z,3.10
2023-04-22T15:07:42.533Z,2.35
2023-04-22T15:10:15.579Z,2.97
2023-04-22T15:12:42.694Z,3.57
2023-04-22T15:15:13.614Z,3.30
2023-04-22T15:17:41.510Z,2.88
2023-04-22T15:20:09.483Z,1.30
2023-04-22T15:22:37.522Z,2.65
2023-04-22T15:25:07.586Z,2.25
2023-04-22T15:27:34.552Z,2.05
2023-04-22T15:30:01.579Z,1.50
2023-04-22T15:32:28.357Z,3.05
2023-04-22T15:34:55.237Z,1.92
2023-04-22T15:37:23.202Z,1.85
2023-04-22T15:39:50.359Z,1.85
2023-04-22T15:42:17.135Z,3.88
2023-04-22T15:44:44.335Z,2.42
2023-04-22T15:47:11.283Z,2.85
2023-04-22T15:49:39.641Z,2.13
2023-04-22T15:52:07.145Z,3.88
2023-04-22T15:54:35.169Z,2.45
2023-04-22T15:57:02.330Z,2.15
2023-04-22T15:59:29.193Z,1.63
2023-04-22T16:01:57.119Z,1.80
2023-04-22T16:04:24.489Z,1.50
2023-04-22T16:06:52.378Z,1.50
2023-04-22T16:09:19.819Z,2.25
2023-04-22T16:11:46.948Z,1.80
2023-04-22T16:14:15.042Z,3.35
2023-04-22T16:16:43.917Z,2.92
2023-04-22T16:19:16.339Z,4.72
2023-04-22T16:21:44.518Z,3.20
2023-04-22T16:24:11.387Z,2.45
2023-04-22T16:26:38.477Z,2.60
2023-04-22T16:29:08.311Z,2.33
2023-04-22T16:31:35.727Z,1.80
2023-04-22T16:34:04.188Z,3.58
2023-04-22T16:36:31.026Z,3.03
2023-04-22T16:39:01.189Z,2.60
2023-04-22T16:41:28.099Z,2.80
2023-04-22T16:43:55.064Z,3.78
2023-04-22T16:46:21.911Z,3.20
2023-04-22T16:48:48.769Z,1.95
2023-04-22T16:51:15.969Z,4.20
2023-04-22T16:53:44.068Z,2.28
2023-04-22T16:56:12.205Z,1.52
2023-04-22T16:58:41.439Z,2.83
2023-04-22T17:01:09.571Z,4.57
2023-04-22T17:03:36.628Z,3.75
2023-04-22T17:06:04.787Z,2.47
2023-04-22T17:08:32.786Z,4.68
2023-04-22T17:11:01.174Z,2.08
2023-04-22T17:13:28.038Z,4.88
2023-04-22T17:15:55.159Z,3.85
2023-04-22T17:18:22.146Z,3.17
2023-04-22T17:20:53.033Z,4.28
2023-04-22T17:23:20.190Z,2.47
2023-04-22T17:25:48.744Z,2.95
2023-04-22T17:28:15.897Z,2.85
2023-04-22T17:30:42.789Z,2.47
2023-04-22T17:33:09.714Z,2.75
2023-04-22T17:35:36.476Z,5.78
2023-04-22T17:38:04.618Z,2.45
2023-04-22T17:40:31.564Z,1.73
2023-04-22T17:42:58.387Z,1.90
2023-04-22T17:45:26.591Z,1.50
2023-04-22T17:47:53.497Z,2.08
2023-04-22T17:50:21.282Z,1.50
2023-04-22T17:52:48.100Z,2.17
2023-04-22T17:55:16.071Z,2.03
2023-04-22T17:57:43.000Z,2.85
2023-04-22T18:00:10.800Z,1.70
2023-04-22T18:02:37.816Z,2.13
2023-04-22T18:05:07.369Z,3.22
2023-04-22T18:07:34.278Z,2.55
2023-04-22T18:10:01.467Z,1.73
2023-04-22T18:12:32.641Z,2.28
2023-04-22T18:15:01.659Z,1.50
2023-04-22T18:17:28.498Z,1.42
2023-04-22T18:20:09.824Z,1.33
2023-04-22T18:22:44.147Z,1.73
2023-04-22T18:25:10.954Z,1.85
2023-04-22T18:27:38.817Z,1.52
2023-04-22T18:30:07.426Z,1.48
2023-04-22T18:32:34.438Z,1.92
2023-04-22T18:35:01.795Z,3.95
2023-04-22T18:37:30.911Z,1.52
2023-04-22T18:40:00.898Z,3.47
2023-04-22T18:42:27.738Z,2.60
2023-04-22T18:44:54.552Z,3.08
2023-04-22T18:47:22.786Z,2.85
2023-04-22T18:49:49.870Z,1.77
2023-04-22T18:52:17.492Z,4.10
2023-04-22T18:54:44.522Z,2.30
2023-04-22T18:57:14.260Z,1.98
2023-04-22T18:59:42.332Z,3.05
2023-04-22T19:02:14.282Z,1.88
2023-04-22T19:04:41.492Z,2.08
2023-04-22T19:07:08.666Z,3.85
2023-04-22T19:09:36.577Z,3.80
2023-04-22T19:12:04.409Z,3.20
2023-04-22T19:14:31.249Z,2.30
2023-04-22T19:16:58.072Z,2.45
2023-04-22T19:19:25.890Z,1.70
2023-04-22T19:21:52.859Z,2.92
2023-04-22T19:24:19.725Z,3.35
2023-04-22T19:26:47.213Z,4.32
2023-04-22T19:29:16.261Z,2.45
2023-04-22T19:31:46.666Z,2.88
2023-04-22T19:34:13.537Z,5.95
2023-04-22T19:36:40.404Z,3.45
2023-04-22T19:39:09.735Z,2.83
2023-04-22T19:41:40.471Z,3.55
2023-04-22T19:44:08.884Z,2.90
2023-04-22T19:46:38.558Z,3.72
2023-04-22T19:49:07.301Z,4.93
2023-04-22T19:51:34.732Z,7.40
2023-04-22T19:54:04.151Z,7.25
2023-04-22T19:56:32.818Z,4.85
2023-04-22T19:59:01.074Z,7.43
2023-04-22T20:01:28.351Z,4.82
2023-04-22T20:03:58.526Z,4.53
2023-04-22T20:06:25.964Z,5.97
2023-04-22T20:08:54.387Z,5.43
2023-04-22T20:11:25.184Z,6.95
2023-04-22T20:13:53.726Z,7.28
2023-04-22T20:16:20.966Z,9.30
2023-04-22T20:18:48.449Z,11.65
2023-04-22T20:21:16.603Z,9.82
2023-04-22T20:23:46.805Z,10.68
2023-04-22T20:26:18.976Z,5.65
2023-04-22T20:28:48.429Z,9.52
2023-04-22T20:31:21.194Z,4.65
2023-04-22T20:33:50.020Z,5.35
2023-04-22T20:36:21.250Z,5.15
2023-04-22T20:38:51.070Z,6.03
2023-04-22T20:41:20.259Z,3.63
2023-04-22T20:43:47.353Z,5.35
2023-04-22T20:46:14.684Z,6.20
2023-04-22T20:48:41.609Z,3.95
2023-04-22T20:51:08.737Z,5.10
2023-04-22T20:53:35.575Z,4.70
2023-04-22T20:56:03.868Z,4.38
2023-04-22T20:58:32.568Z,5.10
2023-04-22T21:00:59.491Z,5.68
2023-04-22T21:03:29.302Z,7.88
2023-04-22T21:05:57.692Z,6.78
2023-04-22T21:08:26.798Z,6.63
2023-04-22T21:10:55.675Z,6.05
2023-04-22T21:13:23.777Z,10.85
2023-04-22T21:16:02.918Z,7.05
2023-04-22T21:18:36.158Z,7.15
2023-04-22T21:21:04.356Z,5.03
2023-04-22T21:23:32.601Z,6.03
2023-04-22T21:26:01.758Z,4.30
2023-04-22T21:28:32.250Z,4.93
2023-04-22T21:31:00.313Z,5.50
2023-04-22T21:33:27.339Z,5.90
2023-04-22T21:35:56.127Z,5.95
2023-04-22T21:38:24.830Z,6.65
2023-04-22T21:40:52.090Z,7.00
2023-04-22T21:43:20.045Z,6.20
2023-04-22T21:45:48.053Z,6.57
2023-04-22T21:48:14.847Z,6.70
2023-04-22T21:50:41.725Z,7.20
2023-04-22T21:53:08.523Z,7.47
2023-04-22T21:55:35.359Z,7.20
2023-04-22T21:58:02.430Z,7.85
2023-04-22T22:00:30.872Z,10.30
2023-04-22T22:02:58.851Z,9.55
2023-04-22T22:05:27.036Z,9.18
2023-04-22T22:07:55.497Z,9.25
2023-04-22T22:10:22.715Z,9.00
2023-04-22T22:12:49.733Z,9.30
2023-04-22T22:15:17.372Z,10.77
2023-04-22T22:17:44.747Z,10.50
2023-04-22T22:20:14.417Z,9.52
2023-04-22T22:22:42.155Z,9.55
2023-04-22T22:25:10.925Z,9.05
2023-04-22T22:27:40.772Z,10.38
2023-04-22T22:30:08.859Z,9.77
2023-04-22T22:32:36.484Z,9.63
2023-04-22T22:35:03.585Z,10.82
2023-04-22T22:37:30.461Z,12.73
2023-04-22T22:39:57.344Z,11.35
2023-04-22T22:42:24.117Z,11.38
2023-04-22T22:44:50.937Z,10.63
2023-04-22T22:47:18.227Z,10.48
2023-04-22T22:49:45.805Z,10.48
2023-04-22T22:52:13.295Z,11.13
2023-04-22T22:54:41.114Z,10.68
2023-04-22T22:57:08.890Z,10.60
2023-04-22T22:59:36.844Z,11.13
2023-04-22T23:02:04.081Z,12.98
2023-04-22T23:04:31.235Z,12.80
2023-04-22T23:06:58.382Z,12.52
2023-04-22T23:09:25.252Z,15.18
2023-04-22T23:11:52.158Z,15.18
2023-04-22T23:14:20.249Z,15.35
2023-04-22T23:16:48.370Z,16.27
2023-04-22T23:19:17.193Z,14.48
2023-04-22T23:21:44.930Z,17.15
2023-04-22T23:24:14.296Z,16.30
2023-04-22T23:26:41.835Z,16.73
2023-04-22T23:29:09.172Z,18.50
2023-04-22T23:31:36.241Z,17.52
2023-04-22T23:34:05.452Z,17.67
2023-04-22T23:36:36.615Z,18.50
2023-04-22T23:39:05.766Z,18.65
2023-04-22T23:41:33.247Z,15.68
2023-04-22T23:44:00.416Z,17.35
2023-04-22T23:46:27.491Z,17.83
2023-04-22T23:48:54.890Z,17.88
2023-04-22T23:51:21.998Z,19.30
2023-04-22T23:53:49.052Z,18.50
2023-04-22T23:56:20.246Z,19.50
2023-04-22T23:58:48.084Z,18.70
